sensor_id;sensor_type;location;lat;lon;timestamp;P1;durP1;ratioP1;P2;durP2;ratioP2
22046;SDS011;11187;49.412;20.956;2023-03-31T00:02:29;35.00;;;31.27;;
22046;SDS011;11187;49.412;20.956;2023-03-31T00:05:15;32.50;;;29.02;;
22046;SDS011;11187;49.412;20.956;2023-03-31T00:07:53;33.17;;;29.85;;
22046;SDS011;11187;49.412;20.956;2023-03-31T00:10:44;35.20;;;31.40;;
22046;SDS011;11187;49.412;20.956;2023-03-31T00:13:20;33.72;;;30.27;;
22046;SDS011;11187;49.412;20.956;2023-03-31T00:16:07;34.42;;;30.92;;
22046;SDS011;11187;49.412;20.956;2023-03-31T00:18:42;39.13;;;31.27;;
22046;SDS011;11187;49.412;20.956;2023-03-31T00:21:37;40.30;;;31.45;;
22046;SDS011;11187;49.412;20.956;2023-03-31T00:24:31;35.20;;;31.48;;
22046;SDS011;11187;49.412;20.956;2023-03-31T00:27:25;35.58;;;31.33;;
22046;SDS011;11187;49.412;20.956;2023-03-31T00:30:00;35.88;;;32.13;;
22046;SDS011;11187;49.412;20.956;2023-03-31T00:32:53;34.08;;;30.48;;
22046;SDS011;11187;49.412;20.956;2023-03-31T00:35:27;34.72;;;31.00;;
22046;SDS011;11187;49.412;20.956;2023-03-31T00:38:20;35.88;;;32.08;;
22046;SDS011;11187;49.412;20.956;2023-03-31T00:41:15;33.92;;;30.27;;
22046;SDS011;11187;49.412;20.956;2023-03-31T00:44:00;32.63;;;29.20;;
22046;SDS011;11187;49.412;20.956;2023-03-31T00:47:14;32.65;;;29.50;;
22046;SDS011;11187;49.412;20.956;2023-03-31T00:49:53;34.63;;;31.40;;
22046;SDS011;11187;49.412;20.956;2023-03-31T00:52:42;33.90;;;30.55;;
22046;SDS011;11187;49.412;20.956;2023-03-31T00:55:21;33.83;;;30.33;;
22046;SDS011;11187;49.412;20.956;2023-03-31T00:58:19;34.42;;;30.92;;
22046;SDS011;11187;49.412;20.956;2023-03-31T01:01:00;33.88;;;30.60;;
22046;SDS011;11187;49.412;20.956;2023-03-31T01:03:55;32.75;;;29.65;;
22046;SDS011;11187;49.412;20.956;2023-03-31T01:06:58;31.55;;;28.17;;
22046;SDS011;11187;49.412;20.956;2023-03-31T01:09:41;33.72;;;30.48;;
22046;SDS011;11187;49.412;20.956;2023-03-31T01:12:40;30.92;;;28.10;;
22046;SDS011;11187;49.412;20.956;2023-03-31T01:15:37;30.63;;;27.50;;
22046;SDS011;11187;49.412;20.956;2023-03-31T01:18:11;32.60;;;29.30;;
22046;SDS011;11187;49.412;20.956;2023-03-31T01:27:05;31.23;;;28.42;;
22046;SDS011;11187;49.412;20.956;2023-03-31T01:46:20;33.00;;;29.48;;
22046;SDS011;11187;49.412;20.956;2023-03-31T01:55:01;33.67;;;30.35;;
22046;SDS011;11187;49.412;20.956;2023-03-31T01:58:05;32.75;;;29.60;;
22046;SDS011;11187;49.412;20.956;2023-03-31T02:01:01;32.15;;;28.88;;
22046;SDS011;11187;49.412;20.956;2023-03-31T02:06:46;34.13;;;30.80;;
22046;SDS011;11187;49.412;20.956;2023-03-31T02:09:40;34.70;;;31.30;;
22046;SDS011;11187;49.412;20.956;2023-03-31T02:12:17;37.05;;;33.20;;
22046;SDS011;11187;49.412;20.956;2023-03-31T02:15:15;33.50;;;30.10;;
22046;SDS011;11187;49.412;20.956;2023-03-31T02:18:14;35.40;;;31.83;;
22046;SDS011;11187;49.412;20.956;2023-03-31T02:21:11;36.33;;;32.72;;
22046;SDS011;11187;49.412;20.956;2023-03-31T02:24:09;34.67;;;31.40;;
22046;SDS011;11187;49.412;20.956;2023-03-31T02:26:56;34.58;;;31.13;;
22046;SDS011;11187;49.412;20.956;2023-03-31T02:30:03;33.80;;;30.40;;
22046;SDS011;11187;49.412;20.956;2023-03-31T02:32:43;32.55;;;29.15;;
22046;SDS011;11187;49.412;20.956;2023-03-31T02:35:37;33.75;;;30.45;;
22046;SDS011;11187;49.412;20.956;2023-03-31T02:38:32;33.08;;;29.73;;
22046;SDS011;11187;49.412;20.956;2023-03-31T02:41:10;32.17;;;28.98;;
22046;SDS011;11187;49.412;20.956;2023-03-31T02:43:57;33.75;;;30.13;;
22046;SDS011;11187;49.412;20.956;2023-03-31T02:46:31;33.83;;;30.00;;
22046;SDS011;11187;49.412;20.956;2023-03-31T02:49:18;34.38;;;30.77;;
22046;SDS011;11187;49.412;20.956;2023-03-31T03:17:45;32.75;;;29.40;;
22046;SDS011;11187;49.412;20.956;2023-03-31T03:20:41;32.50;;;28.65;;
22046;SDS011;11187;49.412;20.956;2023-03-31T03:23:36;35.45;;;30.10;;
22046;SDS011;11187;49.412;20.956;2023-03-31T03:26:10;34.72;;;31.15;;
22046;SDS011;11187;49.412;20.956;2023-03-31T03:28:59;34.95;;;31.35;;
22046;SDS011;11187;49.412;20.956;2023-03-31T03:31:33;36.35;;;32.40;;
22046;SDS011;11187;49.412;20.956;2023-03-31T03:34:19;35.22;;;31.63;;
22046;SDS011;11187;49.412;20.956;2023-03-31T03:36:53;36.85;;;32.97;;
22046;SDS011;11187;49.412;20.956;2023-03-31T03:39:46;33.63;;;29.95;;
22046;SDS011;11187;49.412;20.956;2023-03-31T03:42:20;33.75;;;30.10;;
22046;SDS011;11187;49.412;20.956;2023-03-31T03:45:06;35.17;;;31.48;;
22046;SDS011;11187;49.412;20.956;2023-03-31T03:47:40;32.90;;;29.48;;
22046;SDS011;11187;49.412;20.956;2023-03-31T03:50:34;34.85;;;31.25;;
22046;SDS011;11187;49.412;20.956;2023-03-31T03:53:09;34.97;;;31.25;;
22046;SDS011;11187;49.412;20.956;2023-03-31T03:55:55;35.83;;;32.03;;
22046;SDS011;11187;49.412;20.956;2023-03-31T03:58:31;34.17;;;29.25;;
22046;SDS011;11187;49.412;20.956;2023-03-31T04:01:17;33.65;;;30.13;;
22046;SDS011;11187;49.412;20.956;2023-03-31T04:03:51;33.95;;;30.20;;
22046;SDS011;11187;49.412;20.956;2023-03-31T04:06:37;36.67;;;31.45;;
22046;SDS011;11187;49.412;20.956;2023-03-31T04:09:11;35.15;;;29.50;;
22046;SDS011;11187;49.412;20.956;2023-03-31T04:11:57;32.70;;;28.42;;
22046;SDS011;11187;49.412;20.956;2023-03-31T04:14:31;34.67;;;30.50;;
22046;SDS011;11187;49.412;20.956;2023-03-31T04:17:17;35.83;;;30.73;;
22046;SDS011;11187;49.412;20.956;2023-03-31T04:19:51;37.10;;;30.25;;
22046;SDS011;11187;49.412;20.956;2023-03-31T04:22:40;39.53;;;31.90;;
22046;SDS011;11187;49.412;20.956;2023-03-31T04:25:14;37.63;;;31.02;;
22046;SDS011;11187;49.412;20.956;2023-03-31T04:28:01;32.78;;;29.27;;
22046;SDS011;11187;49.412;20.956;2023-03-31T04:30:35;33.05;;;29.55;;
22046;SDS011;11187;49.412;20.956;2023-03-31T04:33:21;31.77;;;27.77;;
22046;SDS011;11187;49.412;20.956;2023-03-31T04:35:55;36.85;;;30.65;;
22046;SDS011;11187;49.412;20.956;2023-03-31T04:38:52;36.85;;;30.13;;
22046;SDS011;11187;49.412;20.956;2023-03-31T04:41:46;35.75;;;30.17;;
22046;SDS011;11187;49.412;20.956;2023-03-31T04:44:20;36.95;;;31.20;;
22046;SDS011;11187;49.412;20.956;2023-03-31T04:47:13;36.33;;;31.08;;
22046;SDS011;11187;49.412;20.956;2023-03-31T04:50:08;38.50;;;30.95;;
22046;SDS011;11187;49.412;20.956;2023-03-31T04:52:43;36.50;;;29.80;;
22046;SDS011;11187;49.412;20.956;2023-03-31T04:55:30;41.47;;;31.83;;
22046;SDS011;11187;49.412;20.956;2023-03-31T04:58:04;37.30;;;30.60;;
22046;SDS011;11187;49.412;20.956;2023-03-31T05:00:51;34.25;;;30.10;;
22046;SDS011;11187;49.412;20.956;2023-03-31T05:03:24;35.70;;;30.50;;
22046;SDS011;11187;49.412;20.956;2023-03-31T05:06:10;32.28;;;28.77;;
22046;SDS011;11187;49.412;20.956;2023-03-31T05:08:44;32.92;;;27.95;;
22046;SDS011;11187;49.412;20.956;2023-03-31T05:11:37;32.28;;;27.30;;
22046;SDS011;11187;49.412;20.956;2023-03-31T05:14:31;32.42;;;28.33;;
22046;SDS011;11187;49.412;20.956;2023-03-31T05:17:05;36.28;;;28.48;;
22046;SDS011;11187;49.412;20.956;2023-03-31T05:19:51;33.38;;;28.55;;
22046;SDS011;11187;49.412;20.956;2023-03-31T05:22:25;37.85;;;30.35;;
22046;SDS011;11187;49.412;20.956;2023-03-31T05:25:22;36.00;;;29.40;;
22046;SDS011;11187;49.412;20.956;2023-03-31T05:28:18;38.70;;;31.77;;
22046;SDS011;11187;49.412;20.956;2023-03-31T05:30:52;42.10;;;31.25;;
22046;SDS011;11187;49.412;20.956;2023-03-31T05:33:45;33.92;;;29.40;;
22046;SDS011;11187;49.412;20.956;2023-03-31T05:36:19;37.90;;;30.42;;
22046;SDS011;11187;49.412;20.956;2023-03-31T05:39:05;32.80;;;28.77;;
22046;SDS011;11187;49.412;20.956;2023-03-31T05:41:40;38.75;;;29.23;;
22046;SDS011;11187;49.412;20.956;2023-03-31T05:44:26;34.67;;;29.80;;
22046;SDS011;11187;49.412;20.956;2023-03-31T05:47:00;37.83;;;27.98;;
22046;SDS011;11187;49.412;20.956;2023-03-31T05:49:53;36.47;;;28.08;;
22046;SDS011;11187;49.412;20.956;2023-03-31T05:52:52;41.53;;;29.42;;
22046;SDS011;11187;49.412;20.956;2023-03-31T05:55:46;37.65;;;31.15;;
22046;SDS011;11187;49.412;20.956;2023-03-31T05:58:40;41.75;;;32.00;;
22046;SDS011;11187;49.412;20.956;2023-03-31T06:01:34;38.58;;;29.98;;
22046;SDS011;11187;49.412;20.956;2023-03-31T06:04:29;45.78;;;32.25;;
22046;SDS011;11187;49.412;20.956;2023-03-31T06:07:23;43.25;;;30.70;;
22046;SDS011;11187;49.412;20.956;2023-03-31T06:09:57;34.95;;;29.17;;
22046;SDS011;11187;49.412;20.956;2023-03-31T06:12:52;40.78;;;30.13;;
22046;SDS011;11187;49.412;20.956;2023-03-31T06:15:56;37.70;;;29.85;;
22046;SDS011;11187;49.412;20.956;2023-03-31T06:18:32;34.58;;;29.92;;
22046;SDS011;11187;49.412;20.956;2023-03-31T06:21:19;36.08;;;31.17;;
22046;SDS011;11187;49.412;20.956;2023-03-31T06:23:53;36.63;;;29.15;;
22046;SDS011;11187;49.412;20.956;2023-03-31T06:26:40;35.42;;;28.88;;
22046;SDS011;11187;49.412;20.956;2023-03-31T06:29:13;35.08;;;30.05;;
22046;SDS011;11187;49.412;20.956;2023-03-31T06:31:59;34.92;;;30.40;;
22046;SDS011;11187;49.412;20.956;2023-03-31T06:34:33;33.67;;;29.80;;
22046;SDS011;11187;49.412;20.956;2023-03-31T06:37:20;33.40;;;28.27;;
22046;SDS011;11187;49.412;20.956;2023-03-31T06:39:54;33.65;;;26.88;;
22046;SDS011;11187;49.412;20.956;2023-03-31T06:42:40;30.48;;;27.17;;
22046;SDS011;11187;49.412;20.956;2023-03-31T06:45:28;31.55;;;26.17;;
22046;SDS011;11187;49.412;20.956;2023-03-31T06:48:23;30.30;;;26.95;;
22046;SDS011;11187;49.412;20.956;2023-03-31T06:51:00;30.90;;;25.73;;
22046;SDS011;11187;49.412;20.956;2023-03-31T06:53:48;30.80;;;24.90;;
22046;SDS011;11187;49.412;20.956;2023-03-31T06:56:22;30.83;;;27.00;;
22046;SDS011;11187;49.412;20.956;2023-03-31T06:59:15;30.88;;;26.70;;
22046;SDS011;11187;49.412;20.956;2023-03-31T07:01:49;31.25;;;27.67;;
22046;SDS011;11187;49.412;20.956;2023-03-31T07:04:35;41.10;;;29.48;;
22046;SDS011;11187;49.412;20.956;2023-03-31T07:07:09;36.72;;;28.77;;
22046;SDS011;11187;49.412;20.956;2023-03-31T07:10:04;32.85;;;27.88;;
22046;SDS011;11187;49.412;20.956;2023-03-31T07:12:37;41.78;;;29.90;;
22046;SDS011;11187;49.412;20.956;2023-03-31T07:15:24;30.88;;;24.52;;
22046;SDS011;11187;49.412;20.956;2023-03-31T07:17:58;31.98;;;27.02;;
22046;SDS011;11187;49.412;20.956;2023-03-31T07:20:49;32.80;;;26.67;;
22046;SDS011;11187;49.412;20.956;2023-03-31T07:23:22;36.33;;;27.73;;
22046;SDS011;11187;49.412;20.956;2023-03-31T07:26:09;33.50;;;25.40;;
22046;SDS011;11187;49.412;20.956;2023-03-31T07:28:43;32.45;;;27.65;;
22046;SDS011;11187;49.412;20.956;2023-03-31T07:31:36;31.52;;;25.65;;
22046;SDS011;11187;49.412;20.956;2023-03-31T07:34:10;29.27;;;26.15;;
22046;SDS011;11187;49.412;20.956;2023-03-31T07:37:03;32.70;;;25.95;;
22046;SDS011;11187;49.412;20.956;2023-03-31T07:39:37;31.20;;;25.38;;
22046;SDS011;11187;49.412;20.956;2023-03-31T07:42:31;32.40;;;26.33;;
22046;SDS011;11187;49.412;20.956;2023-03-31T07:45:06;28.88;;;24.58;;
22046;SDS011;11187;49.412;20.956;2023-03-31T07:47:53;27.42;;;24.63;;
22046;SDS011;11187;49.412;20.956;2023-03-31T07:50:26;30.40;;;24.77;;
22046;SDS011;11187;49.412;20.956;2023-03-31T07:53:19;29.52;;;24.80;;
22046;SDS011;11187;49.412;20.956;2023-03-31T07:56:14;26.17;;;23.38;;
22046;SDS011;11187;49.412;20.956;2023-03-31T07:58:48;24.02;;;20.58;;
22046;SDS011;11187;49.412;20.956;2023-03-31T08:01:36;24.98;;;19.95;;
22046;SDS011;11187;49.412;20.956;2023-03-31T08:04:10;27.10;;;21.80;;
22046;SDS011;11187;49.412;20.956;2023-03-31T08:06:57;24.65;;;21.98;;
22046;SDS011;11187;49.412;20.956;2023-03-31T08:09:31;24.45;;;21.27;;
22046;SDS011;11187;49.412;20.956;2023-03-31T08:12:17;23.30;;;20.30;;
22046;SDS011;11187;49.412;20.956;2023-03-31T08:14:51;23.45;;;21.08;;
22046;SDS011;11187;49.412;20.956;2023-03-31T08:17:44;22.48;;;19.52;;
22046;SDS011;11187;49.412;20.956;2023-03-31T08:20:38;23.40;;;19.75;;
22046;SDS011;11187;49.412;20.956;2023-03-31T08:23:14;25.85;;;19.90;;
22046;SDS011;11187;49.412;20.956;2023-03-31T08:26:15;22.30;;;19.33;;
22046;SDS011;11187;49.412;20.956;2023-03-31T08:28:53;23.00;;;20.55;;
22046;SDS011;11187;49.412;20.956;2023-03-31T08:31:46;22.88;;;20.75;;
22046;SDS011;11187;49.412;20.956;2023-03-31T08:34:40;22.38;;;20.48;;
22046;SDS011;11187;49.412;20.956;2023-03-31T08:37:35;20.83;;;18.83;;
22046;SDS011;11187;49.412;20.956;2023-03-31T08:40:19;22.13;;;20.08;;
22046;SDS011;11187;49.412;20.956;2023-03-31T08:43:15;20.80;;;19.05;;
22046;SDS011;11187;49.412;20.956;2023-03-31T08:46:17;20.83;;;19.02;;
22046;SDS011;11187;49.412;20.956;2023-03-31T08:49:26;19.58;;;17.95;;
22046;SDS011;11187;49.412;20.956;2023-03-31T08:52:04;20.60;;;18.75;;
22046;SDS011;11187;49.412;20.956;2023-03-31T08:55:05;21.35;;;19.55;;
22046;SDS011;11187;49.412;20.956;2023-03-31T08:58:08;37.97;;;34.00;;
22046;SDS011;11187;49.412;20.956;2023-03-31T09:13:21;21.25;;;19.55;;
22046;SDS011;11187;49.412;20.956;2023-03-31T09:16:29;21.63;;;20.02;;
22046;SDS011;11187;49.412;20.956;2023-03-31T09:19:35;20.20;;;18.52;;
22046;SDS011;11187;49.412;20.956;2023-03-31T09:22:40;20.00;;;18.45;;
22046;SDS011;11187;49.412;20.956;2023-03-31T09:25:19;18.90;;;17.20;;
22046;SDS011;11187;49.412;20.956;2023-03-31T09:31:16;18.05;;;16.60;;
22046;SDS011;11187;49.412;20.956;2023-03-31T09:34:09;18.73;;;17.10;;
22046;SDS011;11187;49.412;20.956;2023-03-31T09:36:46;21.65;;;19.25;;
22046;SDS011;11187;49.412;20.956;2023-03-31T09:39:40;18.77;;;17.40;;
22046;SDS011;11187;49.412;20.956;2023-03-31T09:42:34;17.33;;;15.93;;
22046;SDS011;11187;49.412;20.956;2023-03-31T09:45:29;16.25;;;14.85;;
22046;SDS011;11187;49.412;20.956;2023-03-31T09:48:32;18.65;;;17.15;;
22046;SDS011;11187;49.412;20.956;2023-03-31T09:51:13;22.73;;;20.60;;
22046;SDS011;11187;49.412;20.956;2023-03-31T09:54:08;21.05;;;19.08;;
22046;SDS011;11187;49.412;20.956;2023-03-31T09:56:49;19.73;;;18.27;;
22046;SDS011;11187;49.412;20.956;2023-03-31T09:59:46;23.95;;;21.63;;
22046;SDS011;11187;49.412;20.956;2023-03-31T10:02:34;19.15;;;17.75;;
22046;SDS011;11187;49.412;20.956;2023-03-31T10:11:05;21.73;;;19.67;;
22046;SDS011;11187;49.412;20.956;2023-03-31T10:16:48;17.65;;;16.13;;
22046;SDS011;11187;49.412;20.956;2023-03-31T10:19:57;18.33;;;16.85;;
22046;SDS011;11187;49.412;20.956;2023-03-31T10:22:32;19.73;;;18.02;;
22046;SDS011;11187;49.412;20.956;2023-03-31T10:25:23;19.83;;;18.23;;
22046;SDS011;11187;49.412;20.956;2023-03-31T10:28:00;19.00;;;17.30;;
22046;SDS011;11187;49.412;20.956;2023-03-31T10:30:49;18.52;;;16.92;;
22046;SDS011;11187;49.412;20.956;2023-03-31T10:33:25;17.52;;;16.02;;
22046;SDS011;11187;49.412;20.956;2023-03-31T10:36:36;19.92;;;18.17;;
22046;SDS011;11187;49.412;20.956;2023-03-31T10:39:08;19.90;;;18.27;;
22046;SDS011;11187;49.412;20.956;2023-03-31T10:42:04;18.73;;;17.13;;
22046;SDS011;11187;49.412;20.956;2023-03-31T10:44:38;18.38;;;16.80;;
22046;SDS011;11187;49.412;20.956;2023-03-31T10:47:25;19.90;;;18.27;;
22046;SDS011;11187;49.412;20.956;2023-03-31T10:49:58;19.15;;;17.40;;
22046;SDS011;11187;49.412;20.956;2023-03-31T10:53:01;20.52;;;18.85;;
22046;SDS011;11187;49.412;20.956;2023-03-31T11:08:18;20.20;;;18.38;;
22046;SDS011;11187;49.412;20.956;2023-03-31T11:11:12;22.35;;;20.48;;
22046;SDS011;11187;49.412;20.956;2023-03-31T11:26:16;22.02;;;20.10;;
22046;SDS011;11187;49.412;20.956;2023-03-31T11:41:18;22.42;;;20.52;;
22046;SDS011;11187;49.412;20.956;2023-03-31T11:43:55;22.05;;;20.25;;
22046;SDS011;11187;49.412;20.956;2023-03-31T11:46:56;21.88;;;20.08;;
22046;SDS011;11187;49.412;20.956;2023-03-31T11:49:58;18.88;;;17.27;;
22046;SDS011;11187;49.412;20.956;2023-03-31T11:53:17;18.67;;;16.92;;
22046;SDS011;11187;49.412;20.956;2023-03-31T11:56:16;20.63;;;18.70;;
22046;SDS011;11187;49.412;20.956;2023-03-31T11:58:51;20.73;;;18.95;;
22046;SDS011;11187;49.412;20.956;2023-03-31T12:01:41;21.33;;;19.27;;
22046;SDS011;11187;49.412;20.956;2023-03-31T12:07:30;20.25;;;18.25;;
22046;SDS011;11187;49.412;20.956;2023-03-31T12:13:38;22.90;;;20.75;;
22046;SDS011;11187;49.412;20.956;2023-03-31T12:22:22;24.05;;;21.73;;
22046;SDS011;11187;49.412;20.956;2023-03-31T12:25:21;23.08;;;20.63;;
22046;SDS011;11187;49.412;20.956;2023-03-31T12:27:55;23.40;;;21.00;;
22046;SDS011;11187;49.412;20.956;2023-03-31T12:30:50;27.10;;;21.60;;
22046;SDS011;11187;49.412;20.956;2023-03-31T12:33:27;26.00;;;23.02;;
22046;SDS011;11187;49.412;20.956;2023-03-31T12:45:22;24.17;;;21.65;;
22046;SDS011;11187;49.412;20.956;2023-03-31T12:51:19;24.35;;;21.55;;
22046;SDS011;11187;49.412;20.956;2023-03-31T12:59:38;27.52;;;22.38;;
22046;SDS011;11187;49.412;20.956;2023-03-31T13:02:36;25.45;;;22.95;;
22046;SDS011;11187;49.412;20.956;2023-03-31T13:08:49;28.67;;;22.95;;
22046;SDS011;11187;49.412;20.956;2023-03-31T13:14:27;34.00;;;24.60;;
22046;SDS011;11187;49.412;20.956;2023-03-31T13:20:28;25.90;;;22.92;;
22046;SDS011;11187;49.412;20.956;2023-03-31T13:26:34;30.63;;;25.75;;
22046;SDS011;11187;49.412;20.956;2023-03-31T13:34:35;28.88;;;25.63;;
22046;SDS011;11187;49.412;20.956;2023-03-31T13:40:31;29.92;;;24.90;;
22046;SDS011;11187;49.412;20.956;2023-03-31T13:50:11;29.50;;;24.58;;
22046;SDS011;11187;49.412;20.956;2023-03-31T13:53:22;32.05;;;24.20;;
22046;SDS011;11187;49.412;20.956;2023-03-31T14:05:21;31.92;;;25.65;;
22046;SDS011;11187;49.412;20.956;2023-03-31T14:08:18;32.30;;;25.73;;
22046;SDS011;11187;49.412;20.956;2023-03-31T14:11:20;39.25;;;27.45;;
22046;SDS011;11187;49.412;20.956;2023-03-31T14:14:19;33.83;;;26.98;;
22046;SDS011;11187;49.412;20.956;2023-03-31T14:17:13;32.55;;;26.25;;
22046;SDS011;11187;49.412;20.956;2023-03-31T14:23:17;32.50;;;25.20;;
22046;SDS011;11187;49.412;20.956;2023-03-31T14:26:38;34.78;;;26.98;;
22046;SDS011;11187;49.412;20.956;2023-03-31T14:29:28;33.50;;;24.92;;
22046;SDS011;11187;49.412;20.956;2023-03-31T14:32:48;34.05;;;26.00;;
22046;SDS011;11187;49.412;20.956;2023-03-31T14:35:34;34.83;;;26.38;;
22046;SDS011;11187;49.412;20.956;2023-03-31T14:38:30;35.25;;;26.83;;
22046;SDS011;11187;49.412;20.956;2023-03-31T14:41:24;34.53;;;26.08;;
22046;SDS011;11187;49.412;20.956;2023-03-31T14:44:01;38.25;;;27.27;;
22046;SDS011;11187;49.412;20.956;2023-03-31T14:46:51;35.80;;;27.92;;
22046;SDS011;11187;49.412;20.956;2023-03-31T14:49:25;37.00;;;27.88;;
22046;SDS011;11187;49.412;20.956;2023-03-31T14:52:20;36.10;;;26.58;;
22046;SDS011;11187;49.412;20.956;2023-03-31T14:55:14;37.75;;;25.80;;
22046;SDS011;11187;49.412;20.956;2023-03-31T14:57:53;34.17;;;24.88;;
22046;SDS011;11187;49.412;20.956;2023-03-31T15:00:43;33.15;;;26.35;;
22046;SDS011;11187;49.412;20.956;2023-03-31T15:03:17;33.65;;;23.92;;
22046;SDS011;11187;49.412;20.956;2023-03-31T15:06:05;37.25;;;26.77;;
22046;SDS011;11187;49.412;20.956;2023-03-31T15:08:39;37.88;;;26.23;;
22046;SDS011;11187;49.412;20.956;2023-03-31T15:11:34;32.92;;;27.35;;
22046;SDS011;11187;49.412;20.956;2023-03-31T15:14:29;37.70;;;26.40;;
22046;SDS011;11187;49.412;20.956;2023-03-31T15:17:27;37.25;;;27.08;;
22046;SDS011;11187;49.412;20.956;2023-03-31T15:23:25;36.80;;;26.05;;
22046;SDS011;11187;49.412;20.956;2023-03-31T15:26:06;33.63;;;25.08;;
22046;SDS011;11187;49.412;20.956;2023-03-31T15:31:54;38.38;;;28.17;;
22046;SDS011;11187;49.412;20.956;2023-03-31T15:34:42;38.75;;;27.55;;
22046;SDS011;11187;49.412;20.956;2023-03-31T15:37:23;47.22;;;32.65;;
22046;SDS011;11187;49.412;20.956;2023-03-31T15:43:31;46.50;;;29.23;;
22046;SDS011;11187;49.412;20.956;2023-03-31T15:49:35;33.30;;;24.33;;
22046;SDS011;11187;49.412;20.956;2023-03-31T15:52:18;40.53;;;27.80;;
22046;SDS011;11187;49.412;20.956;2023-03-31T15:55:26;34.90;;;26.80;;
22046;SDS011;11187;49.412;20.956;2023-03-31T15:58:00;37.78;;;27.80;;
22046;SDS011;11187;49.412;20.956;2023-03-31T16:00:50;35.20;;;25.33;;
22046;SDS011;11187;49.412;20.956;2023-03-31T16:03:28;35.97;;;25.63;;
22046;SDS011;11187;49.412;20.956;2023-03-31T16:06:37;32.03;;;23.80;;
22046;SDS011;11187;49.412;20.956;2023-03-31T16:09:16;32.90;;;25.08;;
22046;SDS011;11187;49.412;20.956;2023-03-31T16:12:15;33.05;;;23.50;;
22046;SDS011;11187;49.412;20.956;2023-03-31T16:15:05;34.28;;;23.65;;
22046;SDS011;11187;49.412;20.956;2023-03-31T16:17:57;31.65;;;24.77;;
22046;SDS011;11187;49.412;20.956;2023-03-31T16:20:36;36.63;;;25.88;;
22046;SDS011;11187;49.412;20.956;2023-03-31T16:23:38;33.90;;;27.70;;
22046;SDS011;11187;49.412;20.956;2023-03-31T16:26:33;25.65;;;20.13;;
22046;SDS011;11187;49.412;20.956;2023-03-31T16:29:28;25.83;;;19.48;;
22046;SDS011;11187;49.412;20.956;2023-03-31T16:32:14;25.98;;;19.60;;
22046;SDS011;11187;49.412;20.956;2023-03-31T16:35:03;26.88;;;21.60;;
22046;SDS011;11187;49.412;20.956;2023-03-31T16:37:37;25.95;;;21.83;;
22046;SDS011;11187;49.412;20.956;2023-03-31T16:40:25;30.13;;;22.25;;
22046;SDS011;11187;49.412;20.956;2023-03-31T16:46:05;31.98;;;23.90;;
22046;SDS011;11187;49.412;20.956;2023-03-31T16:48:38;31.85;;;23.98;;
22046;SDS011;11187;49.412;20.956;2023-03-31T16:51:25;32.42;;;23.33;;
22046;SDS011;11187;49.412;20.956;2023-03-31T16:53:58;29.90;;;23.73;;
22046;SDS011;11187;49.412;20.956;2023-03-31T16:56:45;30.67;;;25.00;;
22046;SDS011;11187;49.412;20.956;2023-03-31T16:59:19;27.92;;;21.90;;
22046;SDS011;11187;49.412;20.956;2023-03-31T17:02:07;26.27;;;21.88;;
22046;SDS011;11187;49.412;20.956;2023-03-31T17:04:42;30.05;;;21.98;;
22046;SDS011;11187;49.412;20.956;2023-03-31T17:07:31;27.23;;;20.67;;
22046;SDS011;11187;49.412;20.956;2023-03-31T17:10:04;28.67;;;23.75;;
22046;SDS011;11187;49.412;20.956;2023-03-31T17:12:52;29.67;;;22.75;;
22046;SDS011;11187;49.412;20.956;2023-03-31T17:15:25;25.98;;;21.98;;
22046;SDS011;11187;49.412;20.956;2023-03-31T17:18:15;31.65;;;25.98;;
22046;SDS011;11187;49.412;20.956;2023-03-31T17:20:48;44.22;;;30.42;;
22046;SDS011;11187;49.412;20.956;2023-03-31T17:23:35;37.92;;;28.27;;
22046;SDS011;11187;49.412;20.956;2023-03-31T17:26:10;35.20;;;27.08;;
22046;SDS011;11187;49.412;20.956;2023-03-31T17:28:58;33.30;;;24.70;;
22046;SDS011;11187;49.412;20.956;2023-03-31T17:31:32;30.08;;;23.35;;
22046;SDS011;11187;49.412;20.956;2023-03-31T17:34:19;34.30;;;23.83;;
22046;SDS011;11187;49.412;20.956;2023-03-31T17:36:53;28.92;;;22.23;;
22046;SDS011;11187;49.412;20.956;2023-03-31T17:39:48;28.63;;;23.58;;
22046;SDS011;11187;49.412;20.956;2023-03-31T17:42:42;32.05;;;23.55;;
22046;SDS011;11187;49.412;20.956;2023-03-31T17:45:16;26.23;;;23.10;;
22046;SDS011;11187;49.412;20.956;2023-03-31T17:48:04;29.30;;;23.42;;
22046;SDS011;11187;49.412;20.956;2023-03-31T17:50:38;26.35;;;22.23;;
22046;SDS011;11187;49.412;20.956;2023-03-31T17:53:25;28.73;;;24.73;;
22046;SDS011;11187;49.412;20.956;2023-03-31T17:56:00;27.52;;;23.20;;
22046;SDS011;11187;49.412;20.956;2023-03-31T17:58:54;25.98;;;22.27;;
22046;SDS011;11187;49.412;20.956;2023-03-31T18:01:49;29.02;;;22.23;;
22046;SDS011;11187;49.412;20.956;2023-03-31T18:04:23;25.83;;;22.85;;
22046;SDS011;11187;49.412;20.956;2023-03-31T18:07:17;27.17;;;23.52;;
22046;SDS011;11187;49.412;20.956;2023-03-31T18:09:50;29.27;;;23.05;;
22046;SDS011;11187;49.412;20.956;2023-03-31T18:12:44;30.25;;;23.02;;
22046;SDS011;11187;49.412;20.956;2023-03-31T18:15:18;35.50;;;27.83;;
22046;SDS011;11187;49.412;20.956;2023-03-31T18:18:05;44.92;;;30.00;;
22046;SDS011;11187;49.412;20.956;2023-03-31T18:20:38;34.80;;;28.25;;
22046;SDS011;11187;49.412;20.956;2023-03-31T18:23:25;43.17;;;31.35;;
22046;SDS011;11187;49.412;20.956;2023-03-31T18:25:58;39.80;;;29.83;;
22046;SDS011;11187;49.412;20.956;2023-03-31T18:28:53;36.88;;;26.75;;
22046;SDS011;11187;49.412;20.956;2023-03-31T18:31:26;45.50;;;30.85;;
22046;SDS011;11187;49.412;20.956;2023-03-31T18:34:13;40.85;;;29.38;;
22046;SDS011;11187;49.412;20.956;2023-03-31T18:36:47;48.97;;;31.23;;
22046;SDS011;11187;49.412;20.956;2023-03-31T18:39:34;48.50;;;30.08;;
22046;SDS011;11187;49.412;20.956;2023-03-31T18:42:07;43.05;;;30.85;;
22046;SDS011;11187;49.412;20.956;2023-03-31T18:44:54;29.98;;;24.70;;
22046;SDS011;11187;49.412;20.956;2023-03-31T18:47:27;32.72;;;25.42;;
22046;SDS011;11187;49.412;20.956;2023-03-31T18:50:21;43.15;;;30.23;;
22046;SDS011;11187;49.412;20.956;2023-03-31T18:52:55;26.98;;;22.23;;
22046;SDS011;11187;49.412;20.956;2023-03-31T18:55:52;29.45;;;23.60;;
22046;SDS011;11187;49.412;20.956;2023-03-31T18:58:48;29.70;;;24.10;;
22046;SDS011;11187;49.412;20.956;2023-03-31T19:01:21;28.70;;;25.05;;
22046;SDS011;11187;49.412;20.956;2023-03-31T19:04:08;36.42;;;27.83;;
22046;SDS011;11187;49.412;20.956;2023-03-31T19:06:42;33.88;;;27.27;;
22046;SDS011;11187;49.412;20.956;2023-03-31T19:09:29;57.75;;;36.03;;
22046;SDS011;11187;49.412;20.956;2023-03-31T19:12:02;51.03;;;33.33;;
22046;SDS011;11187;49.412;20.956;2023-03-31T19:14:57;47.00;;;32.20;;
22046;SDS011;11187;49.412;20.956;2023-03-31T19:17:51;38.20;;;28.65;;
22046;SDS011;11187;49.412;20.956;2023-03-31T19:20:24;34.47;;;27.80;;
22046;SDS011;11187;49.412;20.956;2023-03-31T19:23:11;29.67;;;25.63;;
22046;SDS011;11187;49.412;20.956;2023-03-31T19:25:44;33.55;;;29.58;;